Time;durP1;ratioP1;P1;durP2;ratioP2;P2;SDS_P1;SDS_P2;PMS_P1;PMS_P2;Temp;Humidity;BMP_temperature;BMP_pressure;BME280_temperature;BME280_humidity;BME280_pressure;Samples;Min_cycle;Max_cycle;Signal;HPM_P1;HPM_P2
2023/08/16 00:00:57;;;;;;;26.98;13.85;;;16.60;99.90;;;;;;4888271;29;20693;-64
2023/08/16 00:03:23;;;;;;;26.63;13.23;;;16.60;99.90;;;;;;4896019;29;20187;-66
2023/08/16 00:05:49;;;;;;;25.92;13.30;;;16.60;99.90;;;;;;4893588;29;20557;-64
2023/08/16 00:08:15;;;;;;;24.10;13.63;;;16.50;99.90;;;;;;4891854;29;20684;-64
2023/08/16 00:10:40;;;;;;;23.77;12.88;;;16.50;99.90;;;;;;4893876;29;20220;-64
2023/08/16 00:13:06;;;;;;;27.20;13.45;;;16.50;99.90;;;;;;4895974;29;20326;-64
2023/08/16 00:15:32;;;;;;;21.75;12.88;;;16.50;99.90;;;;;;4895482;29;20212;-64
2023/08/16 00:17:58;;;;;;;19.77;12.38;;;16.40;99.90;;;;;;4889250;29;20243;-62
2023/08/16 00:20:26;;;;;;;19.58;12.50;;;16.40;99.90;;;;;;4894737;29;20275;-63
2023/08/16 00:22:52;;;;;;;23.83;13.05;;;16.40;99.90;;;;;;4896432;29;20192;-66
2023/08/16 00:25:19;;;;;;;28.83;17.60;;;16.40;99.90;;;;;;4891804;29;20236;-64
2023/08/16 00:27:45;;;;;;;24.73;13.40;;;16.40;99.90;;;;;;4897403;29;20199;-64
2023/08/16 00:30:11;;;;;;;25.35;12.93;;;16.40;99.90;;;;;;4898717;29;20192;-65
2023/08/16 00:32:37;;;;;;;24.60;12.93;;;16.40;99.90;;;;;;4891832;29;20296;-64
2023/08/16 00:35:05;;;;;;;23.58;12.57;;;16.30;99.90;;;;;;4883857;29;20288;-64
2023/08/16 00:37:31;;;;;;;23.83;12.07;;;16.30;99.90;;;;;;4910116;29;20299;-65
2023/08/16 00:39:57;;;;;;;21.73;12.10;;;16.30;99.90;;;;;;4889142;29;20216;-66
2023/08/16 00:42:23;;;;;;;24.42;12.07;;;16.30;99.90;;;;;;4888344;29;20196;-65
2023/08/16 00:44:49;;;;;;;21.20;12.88;;;16.20;99.90;;;;;;4895459;29;20188;-64
2023/08/16 00:47:16;;;;;;;22.35;12.50;;;16.20;99.90;;;;;;4896833;29;20193;-63
2023/08/16 00:49:42;;;;;;;27.73;12.48;;;16.20;99.90;;;;;;4898549;29;20671;-65
2023/08/16 00:52:08;;;;;;;26.38;12.90;;;16.20;99.90;;;;;;4886491;29;20291;-63
2023/08/16 00:54:35;;;;;;;24.70;13.02;;;16.10;99.90;;;;;;4883359;29;20252;-63
2023/08/16 00:57:01;;;;;;;22.35;14.40;;;16.10;99.90;;;;;;4897890;29;20642;-63
2023/08/16 00:59:28;;;;;;;29.10;15.10;;;16.10;99.90;;;;;;4898216;29;20280;-65
2023/08/16 01:01:54;;;;;;;24.10;14.52;;;16.10;99.90;;;;;;4895330;29;20196;-63
2023/08/16 01:04:20;;;;;;;30.02;15.90;;;16.10;99.90;;;;;;4895231;29;20188;-65
2023/08/16 01:06:46;;;;;;;28.90;15.40;;;16.00;99.90;;;;;;4898409;29;20195;-65
2023/08/16 01:09:12;;;;;;;24.70;15.55;;;16.10;99.90;;;;;;4897216;29;20292;-66
2023/08/16 01:12:23;;;;;;;24.95;15.95;;;16.00;99.90;;;;;;4892237;29;20642;-65
2023/08/16 01:15:01;;;;;;;26.42;14.68;;;16.00;99.90;;;;;;4874795;29;20240;-65
2023/08/16 01:17:29;;;;;;;27.63;13.93;;;16.00;99.90;;;;;;4895348;29;20193;-64
2023/08/16 01:19:59;;;;;;;26.75;13.95;;;15.90;99.90;;;;;;4896446;29;20263;-64
2023/08/16 01:22:47;;;;;;;23.83;14.30;;;15.90;99.90;;;;;;4887410;29;20181;-64
2023/08/16 01:25:37;;;;;;;23.77;14.60;;;15.90;99.90;;;;;;4899472;29;20195;-64
2023/08/16 01:28:04;;;;;;;23.13;14.23;;;15.90;99.90;;;;;;4910222;29;20239;-63
2023/08/16 01:30:30;;;;;;;24.08;14.65;;;15.90;99.90;;;;;;4895673;29;20267;-62
2023/08/16 01:33:08;;;;;;;25.45;15.07;;;15.90;99.90;;;;;;4887272;29;20217;-65
2023/08/16 01:35:36;;;;;;;22.17;14.52;;;15.90;99.90;;;;;;4887916;29;20677;-64
2023/08/16 01:38:06;;;;;;;20.17;14.05;;;15.90;99.90;;;;;;4912203;29;20220;-64
2023/08/16 01:40:41;;;;;;;23.73;14.80;;;15.90;99.90;;;;;;4887250;29;20192;-64
2023/08/16 01:43:10;;;;;;;22.10;13.68;;;15.90;99.90;;;;;;4904829;29;20193;-63
2023/08/16 01:45:36;;;;;;;28.40;13.80;;;15.90;99.90;;;;;;4892263;29;20185;-64
2023/08/16 01:48:04;;;;;;;25.67;13.40;;;15.90;99.90;;;;;;4887210;29;20831;-64
2023/08/16 01:50:30;;;;;;;25.75;13.88;;;15.90;99.90;;;;;;4892355;29;20204;-68
2023/08/16 01:52:56;;;;;;;27.92;14.00;;;15.90;99.90;;;;;;4890998;29;20188;-64
2023/08/16 01:55:22;;;;;;;22.60;14.00;;;15.90;99.90;;;;;;4881779;29;20217;-63
2023/08/16 01:57:48;;;;;;;26.35;14.90;;;15.90;99.90;;;;;;4880787;29;20197;-63
2023/08/16 02:00:15;;;;;;;25.33;14.43;;;15.90;99.90;;;;;;4897847;29;20189;-64
2023/08/16 02:02:42;;;;;;;21.42;14.18;;;15.90;99.90;;;;;;4891732;29;20208;-64
2023/08/16 02:05:08;;;;;;;23.15;14.35;;;15.90;99.90;;;;;;4912627;29;20289;-64
2023/08/16 02:07:37;;;;;;;34.50;14.93;;;15.80;99.90;;;;;;4882410;29;20261;-64
2023/08/16 02:10:03;;;;;;;23.88;13.52;;;15.80;99.90;;;;;;4897334;29;20713;-65
2023/08/16 02:12:29;;;;;;;26.20;13.98;;;15.90;99.90;;;;;;4888975;29;20744;-65
2023/08/16 02:14:55;;;;;;;26.00;13.98;;;15.80;99.90;;;;;;4890631;29;20221;-65
2023/08/16 02:17:21;;;;;;;25.73;14.45;;;15.90;99.90;;;;;;4890650;29;20196;-64
2023/08/16 02:19:47;;;;;;;28.23;14.27;;;15.80;99.90;;;;;;4881628;29;20619;-64
2023/08/16 02:22:13;;;;;;;26.58;14.73;;;15.80;99.90;;;;;;4891385;29;20209;-66
2023/08/16 02:24:39;;;;;;;26.80;14.55;;;15.80;99.90;;;;;;4885857;29;20203;-63
2023/08/16 02:27:05;;;;;;;29.35;15.07;;;15.80;99.90;;;;;;4896305;29;20283;-63
2023/08/16 02:29:31;;;;;;;25.65;15.95;;;15.80;99.90;;;;;;4895002;29;20229;-63
2023/08/16 02:31:57;;;;;;;27.58;16.80;;;15.80;99.90;;;;;;4893321;29;20197;-63
2023/08/16 02:34:23;;;;;;;26.58;16.10;;;15.80;99.90;;;;;;4893055;29;20268;-65
2023/08/16 02:36:49;;;;;;;32.58;16.63;;;15.80;99.90;;;;;;4880829;29;20225;-64
2023/08/16 02:39:17;;;;;;;21.27;15.82;;;15.80;99.90;;;;;;4897036;29;20624;-64
2023/08/16 02:41:43;;;;;;;27.58;16.23;;;15.80;99.90;;;;;;4868450;29;20651;-64
2023/08/16 02:44:09;;;;;;;32.70;16.90;;;15.80;99.90;;;;;;4893150;29;20197;-64
2023/08/16 02:46:35;;;;;;;34.88;17.60;;;15.80;99.90;;;;;;4880858;29;20747;-64
2023/08/16 02:49:01;;;;;;;34.30;17.85;;;15.80;99.90;;;;;;4864872;29;20205;-65
2023/08/16 02:51:28;;;;;;;26.70;17.05;;;15.80;99.90;;;;;;4888020;29;20284;-63
2023/08/16 02:53:53;;;;;;;25.50;16.92;;;15.70;99.90;;;;;;4884103;29;20280;-63
2023/08/16 02:56:19;;;;;;;29.58;17.05;;;15.70;99.90;;;;;;4890700;29;20960;-63
2023/08/16 02:58:45;;;;;;;25.42;16.45;;;15.70;99.90;;;;;;4896519;29;20199;-63
2023/08/16 03:01:11;;;;;;;28.25;17.25;;;15.70;99.90;;;;;;4895340;29;20215;-63
2023/08/16 03:03:37;;;;;;;30.20;16.83;;;15.70;99.90;;;;;;4891497;29;20209;-63
2023/08/16 03:06:03;;;;;;;31.88;17.58;;;15.70;99.90;;;;;;4895061;29;20236;-63
2023/08/16 03:08:30;;;;;;;30.42;16.58;;;15.70;99.90;;;;;;4897417;29;20215;-63
2023/08/16 03:10:56;;;;;;;27.45;16.45;;;15.70;99.90;;;;;;4895302;29;20673;-63
2023/08/16 03:13:22;;;;;;;31.88;16.55;;;15.60;99.90;;;;;;4907132;29;20216;-63
2023/08/16 03:15:48;;;;;;;24.23;16.00;;;15.60;99.90;;;;;;4896332;29;20223;-65
2023/08/16 03:18:15;;;;;;;27.35;16.42;;;15.60;99.90;;;;;;4882634;29;20228;-64
2023/08/16 03:20:41;;;;;;;30.27;16.80;;;15.60;99.90;;;;;;4894052;29;20180;-63
2023/08/16 03:23:08;;;;;;;29.63;17.92;;;15.60;99.90;;;;;;4892416;29;20681;-63
2023/08/16 03:25:35;;;;;;;38.03;17.52;;;15.60;99.90;;;;;;4896651;29;20288;-63
2023/08/16 03:28:01;;;;;;;27.58;16.15;;;15.60;99.90;;;;;;4874925;29;20196;-64
2023/08/16 03:30:27;;;;;;;30.05;17.10;;;15.60;99.90;;;;;;4886629;29;20583;-62
2023/08/16 03:32:53;;;;;;;27.85;16.67;;;15.60;99.90;;;;;;4893459;29;20203;-63
2023/08/16 03:35:20;;;;;;;32.90;17.80;;;15.60;99.90;;;;;;4894428;29;20217;-64
2023/08/16 03:37:46;;;;;;;25.70;16.00;;;15.60;99.90;;;;;;4890462;29;20694;-63
2023/08/16 03:40:14;;;;;;;27.38;16.58;;;15.60;99.90;;;;;;4885915;29;20231;-63
2023/08/16 03:42:40;;;;;;;29.48;16.95;;;15.50;99.90;;;;;;4891336;29;20671;-63
2023/08/16 03:45:08;;;;;;;31.52;17.35;;;15.50;99.90;;;;;;4895000;29;20199;-64
2023/08/16 03:47:35;;;;;;;26.95;17.52;;;15.50;99.90;;;;;;4884666;29;20185;-63
2023/08/16 03:50:01;;;;;;;29.02;16.98;;;15.50;99.90;;;;;;4895379;29;20203;-63
2023/08/16 03:52:27;;;;;;;30.13;16.77;;;15.50;99.90;;;;;;4874199;29;20204;-63
2023/08/16 03:54:53;;;;;;;23.58;15.52;;;15.50;99.90;;;;;;4896725;29;20582;-63
2023/08/16 03:57:21;;;;;;;26.38;16.65;;;15.50;99.90;;;;;;4890025;29;20598;-62
2023/08/16 03:59:47;;;;;;;29.23;15.95;;;15.50;99.90;;;;;;4900106;29;20650;-64
2023/08/16 04:02:13;;;;;;;27.90;17.13;;;15.50;99.90;;;;;;4884181;29;20276;-66
2023/08/16 04:04:39;;;;;;;26.17;17.33;;;15.50;99.90;;;;;;4892033;29;20562;-64
2023/08/16 04:07:05;;;;;;;27.17;16.88;;;15.50;99.90;;;;;;4890716;29;20213;-64
2023/08/16 04:09:31;;;;;;;25.45;16.67;;;15.40;99.90;;;;;;4890480;29;20194;-63
2023/08/16 04:11:57;;;;;;;30.08;16.52;;;15.40;99.90;;;;;;4893974;29;20196;-64
2023/08/16 04:14:22;;;;;;;29.63;17.08;;;15.40;99.90;;;;;;4909786;29;20197;-64
2023/08/16 04:16:48;;;;;;;29.27;16.95;;;15.40;99.90;;;;;;4892711;29;20737;-64
2023/08/16 04:19:14;;;;;;;29.60;17.00;;;15.40;99.90;;;;;;4895672;29;20204;-64
2023/08/16 04:21:40;;;;;;;31.35;17.95;;;15.40;99.90;;;;;;4890720;29;20314;-64
2023/08/16 04:24:06;;;;;;;30.17;17.65;;;15.40;99.90;;;;;;4895847;29;20657;-63
2023/08/16 04:26:32;;;;;;;28.65;16.95;;;15.40;99.90;;;;;;4874554;29;20818;-64
2023/08/16 04:28:58;;;;;;;26.48;17.05;;;15.40;99.90;;;;;;4894420;29;20267;-63
2023/08/16 04:31:24;;;;;;;34.08;17.30;;;15.40;99.90;;;;;;4893097;29;20196;-64
2023/08/16 04:33:50;;;;;;;33.17;18.08;;;15.40;99.90;;;;;;4888112;29;20334;-64
2023/08/16 04:36:16;;;;;;;27.20;16.85;;;15.40;99.90;;;;;;4890833;29;20213;-64
2023/08/16 04:38:42;;;;;;;28.95;18.05;;;15.40;99.90;;;;;;4888134;29;20204;-64
2023/08/16 04:41:08;;;;;;;27.95;17.30;;;15.50;99.90;;;;;;4868720;29;20645;-65
2023/08/16 04:43:35;;;;;;;28.63;17.17;;;15.40;99.90;;;;;;4887025;29;20592;-65
2023/08/16 04:46:02;;;;;;;28.40;17.92;;;15.40;99.90;;;;;;4894160;29;20276;-63
2023/08/16 04:48:29;;;;;;;27.95;17.67;;;15.50;99.90;;;;;;4891079;29;20220;-64
2023/08/16 04:50:55;;;;;;;32.10;19.27;;;15.50;99.90;;;;;;4909460;29;20227;-63
2023/08/16 04:53:22;;;;;;;33.75;19.98;;;15.50;99.90;;;;;;4906817;29;20188;-63
2023/08/16 04:55:48;;;;;;;32.20;18.83;;;15.60;99.90;;;;;;4891243;29;20221;-62
2023/08/16 04:58:14;;;;;;;26.90;17.33;;;15.60;99.90;;;;;;4909835;29;20199;-62
2023/08/16 05:00:46;;;;;;;30.13;18.65;;;15.60;99.90;;;;;;4893614;29;20193;-64
2023/08/16 05:03:12;;;;;;;23.55;17.02;;;15.60;99.90;;;;;;4856898;29;20190;-64
2023/08/16 05:05:38;;;;;;;28.05;17.45;;;15.60;99.90;;;;;;4898035;29;20276;-64
2023/08/16 05:08:05;;;;;;;26.13;16.92;;;15.70;99.90;;;;;;4888913;29;20192;-64
2023/08/16 05:10:31;;;;;;;26.95;16.30;;;15.70;99.90;;;;;;4909225;29;20216;-65
2023/08/16 05:12:56;;;;;;;28.50;16.92;;;15.70;99.90;;;;;;4886006;29;20222;-63
2023/08/16 05:15:22;;;;;;;28.58;16.73;;;15.80;99.90;;;;;;4897640;29;20212;-66
2023/08/16 05:17:48;;;;;;;28.42;16.95;;;15.80;99.90;;;;;;4898730;29;20200;-64
2023/08/16 05:20:14;;;;;;;25.92;16.48;;;15.90;99.90;;;;;;4912491;29;20200;-66
2023/08/16 05:22:40;;;;;;;30.33;18.77;;;15.90;99.90;;;;;;4886637;29;20193;-64
2023/08/16 05:25:07;;;;;;;31.42;18.10;;;16.00;99.90;;;;;;4897258;29;20204;-65
2023/08/16 05:27:33;;;;;;;28.35;18.08;;;16.00;99.90;;;;;;4892792;29;20283;-65
2023/08/16 05:29:59;;;;;;;30.25;17.30;;;16.00;99.90;;;;;;4896164;29;20794;-65
2023/08/16 05:32:24;;;;;;;24.23;16.17;;;16.10;99.90;;;;;;4897368;29;20205;-65
2023/08/16 05:34:54;;;;;;;23.65;15.43;;;16.20;99.90;;;;;;4887169;29;20197;-66
2023/08/16 05:37:20;;;;;;;31.65;16.90;;;16.20;99.90;;;;;;4892977;29;20338;-64
2023/08/16 05:39:47;;;;;;;27.00;16.00;;;16.30;99.90;;;;;;4880824;29;20191;-66
2023/08/16 05:42:12;;;;;;;23.98;15.57;;;16.30;99.90;;;;;;4889922;29;20193;-65
2023/08/16 05:44:38;;;;;;;26.20;14.80;;;16.40;99.90;;;;;;4895033;29;20839;-65
2023/08/16 05:47:04;;;;;;;21.13;14.13;;;16.50;99.90;;;;;;4888570;29;20200;-65
2023/08/16 05:49:30;;;;;;;23.63;14.15;;;16.60;99.90;;;;;;4897693;29;20189;-64
2023/08/16 05:51:56;;;;;;;24.02;13.13;;;16.60;99.90;;;;;;4895499;29;20357;-65
2023/08/16 05:54:22;;;;;;;26.48;13.60;;;16.70;99.90;;;;;;4897882;29;20216;-65
2023/08/16 05:56:48;;;;;;;22.48;12.82;;;16.80;99.90;;;;;;4896878;29;20238;-65
2023/08/16 05:59:14;;;;;;;22.13;12.23;;;16.80;99.90;;;;;;4884240;29;20196;-66
2023/08/16 06:01:40;;;;;;;22.30;11.68;;;16.90;99.90;;;;;;4894668;29;20509;-66
2023/08/16 06:04:06;;;;;;;18.35;10.68;;;16.90;99.90;;;;;;4895287;29;20197;-64
2023/08/16 06:06:32;;;;;;;18.98;10.82;;;17.00;99.90;;;;;;4864689;29;20193;-63
2023/08/16 06:08:58;;;;;;;18.13;10.60;;;17.10;99.90;;;;;;4866993;29;20249;-64
2023/08/16 06:11:24;;;;;;;15.00;9.80;;;17.10;99.90;;;;;;4886908;29;20276;-63
2023/08/16 06:13:50;;;;;;;17.42;9.82;;;17.20;99.90;;;;;;4886820;29;20287;-65
2023/08/16 06:16:17;;;;;;;21.38;11.65;;;17.30;99.90;;;;;;4884955;29;20304;-64
2023/08/16 06:18:43;;;;;;;18.95;9.93;;;17.30;99.90;;;;;;4897342;29;20196;-65
2023/08/16 06:21:09;;;;;;;15.75;10.13;;;17.40;99.90;;;;;;4897196;29;20260;-65
2023/08/16 06:23:35;;;;;;;16.48;8.45;;;17.40;99.90;;;;;;4895164;29;20244;-65
2023/08/16 06:26:01;;;;;;;12.77;7.90;;;17.50;99.90;;;;;;4896958;29;20521;-63
2023/08/16 06:28:27;;;;;;;14.18;7.25;;;17.50;99.90;;;;;;4894999;29;20203;-66
2023/08/16 06:30:53;;;;;;;23.58;8.70;;;17.60;99.90;;;;;;4887970;29;20292;-66
2023/08/16 06:33:22;;;;;;;14.05;7.03;;;17.60;99.90;;;;;;4891717;29;20220;-66
2023/08/16 06:35:51;;;;;;;13.73;7.32;;;17.70;99.90;;;;;;4898508;29;20209;-67
2023/08/16 06:38:18;;;;;;;13.13;7.00;;;17.70;99.90;;;;;;4893298;29;20189;-66
2023/08/16 06:40:44;;;;;;;11.68;5.93;;;17.70;99.90;;;;;;4895256;29;20195;-65
2023/08/16 06:43:09;;;;;;;17.20;6.22;;;17.80;99.90;;;;;;4892595;29;20187;-64
2023/08/16 06:45:35;;;;;;;12.82;5.70;;;17.80;99.90;;;;;;4885165;29;20193;-64
2023/08/16 06:48:03;;;;;;;14.52;6.47;;;17.90;99.90;;;;;;4889089;29;20212;-66
2023/08/16 06:50:29;;;;;;;13.82;6.40;;;17.90;99.90;;;;;;4908024;29;20497;-65
2023/08/16 06:52:55;;;;;;;9.85;5.43;;;18.00;99.90;;;;;;4883094;29;20268;-66
2023/08/16 06:55:22;;;;;;;13.20;5.20;;;18.00;99.90;;;;;;4909811;29;20235;-66
2023/08/16 06:57:50;;;;;;;8.27;4.20;;;18.00;99.90;;;;;;4896410;29;20188;-66
2023/08/16 07:00:17;;;;;;;9.18;5.20;;;18.10;99.90;;;;;;4892292;29;20671;-65
2023/08/16 07:02:43;;;;;;;10.23;5.30;;;18.10;99.90;;;;;;4881888;29;20189;-66
2023/08/16 07:05:11;;;;;;;10.77;3.40;;;18.20;99.90;;;;;;4901810;29;20193;-63
2023/08/16 07:07:38;;;;;;;7.03;3.45;;;18.20;99.90;;;;;;4883358;29;20565;-65
2023/08/16 07:10:05;;;;;;;11.73;3.40;;;18.30;99.90;;;;;;4890213;29;20215;-64
2023/08/16 07:12:31;;;;;;;10.07;3.22;;;18.40;99.90;;;;;;4897133;29;20192;-62
2023/08/16 07:14:57;;;;;;;7.30;3.10;;;18.40;99.90;;;;;;4892468;29;20280;-73
2023/08/16 07:17:23;;;;;;;6.35;2.70;;;18.50;99.90;;;;;;4887997;29;20195;-65
2023/08/16 07:19:50;;;;;;;13.75;2.47;;;18.50;99.90;;;;;;4880113;29;20259;-67
2023/08/16 07:22:16;;;;;;;7.85;2.60;;;18.60;99.90;;;;;;4897476;29;20192;-66
2023/08/16 07:24:42;;;;;;;7.88;3.00;;;18.60;99.90;;;;;;4886186;29;20510;-67
2023/08/16 07:27:09;;;;;;;5.90;2.75;;;18.70;99.90;;;;;;4882586;29;20189;-64
2023/08/16 07:29:34;;;;;;;4.72;2.33;;;18.70;99.90;;;;;;4893153;29;20375;-64
2023/08/16 07:32:00;;;;;;;8.52;3.20;;;18.70;99.90;;;;;;4889747;29;20272;-63
2023/08/16 07:34:26;;;;;;;6.85;2.38;;;18.80;99.90;;;;;;4889718;29;20197;-65
2023/08/16 07:36:52;;;;;;;7.97;2.42;;;18.90;99.90;;;;;;4898678;29;20329;-64
2023/08/16 07:39:18;;;;;;;9.65;2.78;;;18.90;99.90;;;;;;4895594;29;20204;-65
2023/08/16 07:41:44;;;;;;;6.90;2.40;;;19.00;99.90;;;;;;4885273;29;20710;-65
2023/08/16 07:44:10;;;;;;;8.65;3.20;;;19.00;99.90;;;;;;4895610;29;20223;-64
2023/08/16 07:46:36;;;;;;;8.05;3.17;;;19.20;99.90;;;;;;4895830;29;20626;-65
2023/08/16 07:49:02;;;;;;;9.52;2.15;;;19.20;99.90;;;;;;4895674;29;20193;-65
2023/08/16 07:51:28;;;;;;;6.07;2.17;;;19.30;99.90;;;;;;4877223;29;20242;-65
2023/08/16 07:53:54;;;;;;;6.60;2.70;;;19.40;99.90;;;;;;4889398;29;20193;-66
2023/08/16 07:56:20;;;;;;;7.18;3.85;;;19.40;99.90;;;;;;4874108;29;20658;-66
2023/08/16 07:58:46;;;;;;;4.60;2.50;;;19.50;99.90;;;;;;4896010;29;20220;-64
2023/08/16 08:01:12;;;;;;;7.22;3.70;;;19.50;99.90;;;;;;4894141;29;20275;-72
2023/08/16 08:03:38;;;;;;;9.23;2.63;;;19.60;99.90;;;;;;4895878;29;20555;-71
2023/08/16 08:06:04;;;;;;;5.20;2.70;;;19.70;99.90;;;;;;4911134;29;20246;-70
2023/08/16 08:08:31;;;;;;;13.70;3.58;;;19.70;99.90;;;;;;4896616;29;20184;-73
2023/08/16 08:10:57;;;;;;;10.95;2.95;;;19.70;99.90;;;;;;4876893;29;20201;-71
2023/08/16 08:13:23;;;;;;;5.88;2.40;;;19.80;99.90;;;;;;4893843;29;20626;-71
2023/08/16 08:15:49;;;;;;;5.32;1.90;;;19.90;99.90;;;;;;4896050;29;20707;-71
2023/08/16 08:18:15;;;;;;;5.07;2.13;;;20.00;99.90;;;;;;4876290;29;20567;-72
2023/08/16 08:20:41;;;;;;;5.65;3.03;;;20.00;99.90;;;;;;4877157;29;20657;-74
2023/08/16 08:23:07;;;;;;;6.88;3.03;;;20.00;99.90;;;;;;4893744;29;20195;-71
2023/08/16 08:25:34;;;;;;;4.40;2.22;;;20.10;99.90;;;;;;4888525;29;20713;-71
2023/08/16 08:28:00;;;;;;;5.25;2.28;;;20.20;99.90;;;;;;4888914;29;20223;-72
2023/08/16 08:30:27;;;;;;;4.63;2.00;;;20.20;99.90;;;;;;4889184;29;20547;-72
2023/08/16 08:32:54;;;;;;;6.82;2.35;;;20.20;99.90;;;;;;4901321;29;20662;-72
2023/08/16 08:35:20;;;;;;;11.65;4.93;;;20.30;99.90;;;;;;4869890;29;20221;-72
2023/08/16 08:37:46;;;;;;;4.60;1.80;;;20.30;99.90;;;;;;4888120;29;20189;-71
2023/08/16 08:40:12;;;;;;;14.95;4.55;;;20.30;99.90;;;;;;4887004;29;20273;-70
2023/08/16 08:42:41;;;;;;;4.20;1.98;;;20.40;99.90;;;;;;4891247;29;20269;-72
2023/08/16 08:45:07;;;;;;;6.40;1.90;;;20.40;99.90;;;;;;4896027;29;20189;-70
2023/08/16 08:47:34;;;;;;;5.15;1.52;;;20.50;99.90;;;;;;4904376;29;20192;-71
2023/08/16 08:50:02;;;;;;;5.53;2.00;;;20.60;99.90;;;;;;4896753;29;20197;-71
2023/08/16 08:52:29;;;;;;;6.60;2.63;;;20.60;99.90;;;;;;4888025;29;20280;-72
2023/08/16 08:54:55;;;;;;;4.32;2.22;;;20.60;99.90;;;;;;4888109;29;20200;-72
2023/08/16 08:57:23;;;;;;;4.45;2.38;;;20.70;99.90;;;;;;4877797;29;20195;-73
2023/08/16 08:59:49;;;;;;;7.78;2.30;;;20.80;99.90;;;;;;4902036;29;20729;-72
2023/08/16 09:02:17;;;;;;;4.90;2.45;;;20.90;99.90;;;;;;4898198;29;20196;-72
2023/08/16 09:04:46;;;;;;;4.80;2.00;;;20.90;99.90;;;;;;4897398;29;20715;-73
2023/08/16 09:07:13;;;;;;;5.68;2.00;;;21.00;99.90;;;;;;4894278;29;20196;-68
2023/08/16 09:09:39;;;;;;;6.18;2.75;;;21.00;99.90;;;;;;4893325;29;20268;-80
2023/08/16 09:12:06;;;;;;;4.05;2.53;;;21.10;99.90;;;;;;4897052;29;20213;-77
2023/08/16 09:14:32;;;;;;;8.07;2.30;;;21.10;99.90;;;;;;4897736;29;20279;-64
2023/08/16 09:16:58;;;;;;;5.43;2.30;;;21.10;99.90;;;;;;4898931;29;20311;-72
2023/08/16 09:19:24;;;;;;;6.78;2.72;;;21.10;99.90;;;;;;4871798;29;20280;-73
2023/08/16 09:21:51;;;;;;;7.30;3.33;;;21.20;99.90;;;;;;4894637;29;20221;-72
2023/08/16 09:24:25;;;;;;;8.68;2.97;;;21.20;99.90;;;;;;4889121;29;20185;-73
2023/08/16 09:26:52;;;;;;;8.82;3.40;;;21.20;99.90;;;;;;4882333;29;20185;-72
2023/08/16 09:29:18;;;;;;;5.43;3.50;;;21.30;99.90;;;;;;4896803;29;20232;-71
2023/08/16 09:31:46;;;;;;;6.28;3.20;;;21.30;99.90;;;;;;4866835;29;20196;-73
2023/08/16 09:34:15;;;;;;;5.65;3.28;;;21.30;99.90;;;;;;4872881;29;20555;-70
2023/08/16 09:36:45;;;;;;;6.03;3.47;;;21.40;99.90;;;;;;4881875;29;20289;-72
2023/08/16 09:39:11;;;;;;;4.43;3.00;;;21.50;99.90;;;;;;4890012;29;20212;-71
2023/08/16 09:41:50;;;;;;;6.88;3.35;;;21.60;99.90;;;;;;4896025;29;20689;-72
2023/08/16 09:44:17;;;;;;;6.60;2.92;;;21.60;99.90;;;;;;4896418;29;20196;-72
2023/08/16 09:46:43;;;;;;;8.48;2.78;;;21.60;99.90;;;;;;4885821;29;20201;-72
2023/08/16 09:49:10;;;;;;;4.30;2.97;;;21.70;99.90;;;;;;4897014;29;20563;-74
2023/08/16 09:51:38;;;;;;;9.70;3.30;;;21.80;99.90;;;;;;4893329;29;20192;-73
2023/08/16 09:54:14;;;;;;;8.77;3.10;;;22.00;99.90;;;;;;4899157;29;20191;-73
2023/08/16 09:56:43;;;;;;;6.50;3.10;;;22.10;99.90;;;;;;4883570;29;20216;-75
2023/08/16 09:59:11;;;;;;;7.05;2.88;;;22.20;99.90;;;;;;4888027;29;20192;-71
2023/08/16 10:01:38;;;;;;;12.30;2.85;;;22.30;99.90;;;;;;4896474;29;20677;-65
2023/08/16 10:04:05;;;;;;;4.30;2.55;;;22.30;99.90;;;;;;4881876;29;20288;-76
2023/08/16 10:06:33;;;;;;;3.85;2.08;;;22.40;99.90;;;;;;4892907;29;20204;-71
2023/08/16 10:09:02;;;;;;;5.10;2.60;;;22.40;99.90;;;;;;4891074;29;20192;-72
2023/08/16 10:11:28;;;;;;;7.72;2.33;;;22.50;99.90;;;;;;4891398;29;20180;-76
2023/08/16 10:13:55;;;;;;;5.25;2.65;;;22.60;99.90;;;;;;4898620;29;20185;-76
2023/08/16 10:16:25;;;;;;;4.25;2.45;;;22.60;99.90;;;;;;4899117;29;20217;-76
2023/08/16 10:18:55;;;;;;;5.10;2.40;;;22.70;99.90;;;;;;4889519;29;20276;-70
2023/08/16 10:21:22;;;;;;;8.65;2.75;;;22.80;99.90;;;;;;4905908;29;20221;-76
2023/08/16 10:23:48;;;;;;;6.32;2.60;;;22.90;99.90;;;;;;4880750;29;20279;-74
2023/08/16 10:26:17;;;;;;;11.93;5.22;;;22.90;99.90;;;;;;4896980;29;20185;-74
2023/08/16 10:28:49;;;;;;;7.35;3.00;;;23.00;99.90;;;;;;4843930;29;20194;-75
2023/08/16 10:31:19;;;;;;;6.18;2.78;;;23.20;99.90;;;;;;4894262;29;20242;-75
2023/08/16 10:33:49;;;;;;;5.22;2.53;;;23.30;99.90;;;;;;4912941;29;20192;-76
2023/08/16 10:36:16;;;;;;;4.60;2.10;;;23.30;99.90;;;;;;4896691;29;20220;-74
2023/08/16 10:38:42;;;;;;;5.10;1.85;;;23.30;99.90;;;;;;4870666;29;20654;-74
2023/08/16 10:41:15;;;;;;;4.05;1.63;;;23.30;99.90;;;;;;4890954;29;20197;-72
2023/08/16 10:43:54;;;;;;;4.30;2.20;;;23.30;99.90;;;;;;4882777;29;20182;-73
2023/08/16 10:46:33;;;;;;;5.10;2.83;;;23.30;99.90;;;;;;4884518;29;20252;-73
2023/08/16 10:49:01;;;;;;;7.10;2.10;;;23.40;99.90;;;;;;4897306;29;20319;-76
2023/08/16 10:51:27;;;;;;;4.43;2.47;;;23.40;99.90;;;;;;4885343;29;20607;-74
2023/08/16 10:53:56;;;;;;;7.32;2.05;;;23.40;99.90;;;;;;4893588;29;20207;-73
2023/08/16 10:56:23;;;;;;;5.43;2.58;;;23.50;99.90;;;;;;4880869;29;20279;-76
2023/08/16 10:58:50;;;;;;;5.43;2.20;;;23.60;99.90;;;;;;4880666;29;20196;-73
2023/08/16 11:01:18;;;;;;;3.63;2.45;;;23.60;99.90;;;;;;4895063;29;20240;-73
2023/08/16 11:03:44;;;;;;;4.82;2.60;;;23.70;99.90;;;;;;4884424;29;20284;-73
2023/08/16 11:06:11;;;;;;;6.15;3.08;;;23.70;99.90;;;;;;4886606;29;20185;-72
2023/08/16 11:08:42;;;;;;;6.75;2.83;;;23.60;99.90;;;;;;4891780;29;20193;-73
2023/08/16 11:11:09;;;;;;;5.90;3.13;;;23.60;99.90;;;;;;4895881;29;20215;-73
2023/08/16 11:13:35;;;;;;;6.20;3.35;;;23.60;99.90;;;;;;4886838;29;20204;-73
2023/08/16 11:16:01;;;;;;;8.57;2.83;;;23.60;99.90;;;;;;4889546;29;20220;-73
2023/08/16 11:18:33;;;;;;;8.60;2.85;;;23.70;99.90;;;;;;4889944;29;20221;-72
2023/08/16 11:21:00;;;;;;;7.32;3.88;;;23.80;99.90;;;;;;4896858;29;20569;-73
2023/08/16 11:23:34;;;;;;;7.03;3.03;;;23.80;99.90;;;;;;4891881;29;20249;-73
2023/08/16 11:26:04;;;;;;;5.10;3.50;;;23.80;99.90;;;;;;4884003;29;20207;-72
2023/08/16 11:28:32;;;;;;;8.23;4.38;;;23.90;99.90;;;;;;4867747;29;20197;-73
2023/08/16 11:30:59;;;;;;;5.53;2.97;;;24.10;99.90;;;;;;4894844;29;20243;-72
2023/08/16 11:33:32;;;;;;;7.05;3.30;;;24.20;99.90;;;;;;4877223;29;20202;-74
2023/08/16 11:36:04;;;;;;;5.32;3.38;;;24.30;99.90;;;;;;4896569;29;20554;-74
2023/08/16 11:38:31;;;;;;;6.63;3.60;;;24.30;99.90;;;;;;4896864;29;20189;-74
2023/08/16 11:40:57;;;;;;;6.32;3.30;;;24.30;99.90;;;;;;4896542;29;20231;-73
2023/08/16 11:43:28;;;;;;;5.10;3.80;;;24.30;99.90;;;;;;4895379;29;20201;-74
2023/08/16 11:45:55;;;;;;;7.32;3.58;;;24.40;99.90;;;;;;4883650;29;20193;-72
2023/08/16 11:48:21;;;;;;;7.68;3.63;;;24.50;99.90;;;;;;4895492;29;20204;-72
2023/08/16 11:50:48;;;;;;;8.30;4.43;;;24.50;99.90;;;;;;4896453;29;20189;-75
2023/08/16 11:53:18;;;;;;;5.50;3.50;;;24.50;99.90;;;;;;4887951;29;20200;-71
2023/08/16 11:55:58;;;;;;;7.15;3.70;;;24.40;99.90;;;;;;4886407;29;20217;-72
2023/08/16 11:58:25;;;;;;;8.98;3.95;;;24.30;99.90;;;;;;4892696;29;20270;-74
2023/08/16 12:00:52;;;;;;;10.20;6.50;;;24.20;99.90;;;;;;4894474;29;20256;-73
2023/08/16 12:03:18;;;;;;;7.32;3.00;;;24.10;99.90;;;;;;4895050;29;20193;-74
2023/08/16 12:05:48;;;;;;;6.35;3.20;;;24.10;99.90;;;;;;4892471;29;20255;-73
2023/08/16 12:08:21;;;;;;;8.23;3.60;;;24.10;99.90;;;;;;4877277;29;20189;-73
2023/08/16 12:10:53;;;;;;;6.15;3.08;;;24.10;99.80;;;;;;4879620;29;20268;-72
2023/08/16 12:13:21;;;;;;;6.38;3.00;;;24.20;99.70;;;;;;4896073;29;20202;-72
2023/08/16 12:15:48;;;;;;;5.38;3.00;;;24.20;99.60;;;;;;4893399;29;20220;-71
2023/08/16 12:18:17;;;;;;;6.40;3.80;;;24.20;99.50;;;;;;4889002;29;20195;-69
2023/08/16 12:20:52;;;;;;;8.02;4.20;;;24.20;99.10;;;;;;4894654;29;20208;-74
2023/08/16 12:23:20;;;;;;;6.13;3.70;;;24.30;99.10;;;;;;4892777;29;20188;-72
2023/08/16 12:25:48;;;;;;;7.93;3.53;;;24.30;98.90;;;;;;4896599;29;20180;-71
2023/08/16 12:28:14;;;;;;;9.00;3.80;;;24.40;98.60;;;;;;4891971;29;20288;-69
2023/08/16 12:30:40;;;;;;;6.25;3.08;;;24.50;98.90;;;;;;4876559;29;20677;-70
2023/08/16 12:33:06;;;;;;;7.50;3.60;;;24.50;98.30;;;;;;4892081;29;20188;-71
2023/08/16 12:35:34;;;;;;;8.68;2.97;;;24.40;97.80;;;;;;4895182;29;20221;-71